aviador You're here:

PFNO Decoded Metar

in
Report Time2017-04-29 16:58:00
UTC Time2017-04-29 17:45:30
Flight Rules vfr VFR
Wind070° at 11 kt
W.Decomp.*RWY 06: 10.8 kt HW 1.9 kt RCW
W.Rank070° ranks 1
Current wind is below 070° avg. (11.9)
Visibility9999 m
Phenomena:N/A
Clouds:Scattered 080 Hf
Expected CloudBase > 2,000 ft AGL from Temp-Dew spread
CeilingNone
Temp03°C
Dew Point-2°C (70% RH)
AAT-3.2°C
QNH1016 hPa
Raw Report
PFNO 291658Z AUTO 07011KT 10SM SCT080 03/M02 A2999 RMK AO2 SLP157
T00281022=

Extra information for PFNO:More info

Social comments